sensor_id;sensor_type;location;lat;lon;timestamp;P1;durP1;ratioP1;P2;durP2;ratioP2
5026;SDS011;2532;52.480;13.354;2023-07-30T04:01:22;11.00;;;7.37;;
5026;SDS011;2532;52.480;13.354;2023-07-30T04:03:50;8.70;;;7.80;;
5026;SDS011;2532;52.480;13.354;2023-07-30T04:06:17;11.63;;;7.60;;
5026;SDS011;2532;52.480;13.354;2023-07-30T04:08:43;11.37;;;7.57;;
5026;SDS011;2532;52.480;13.354;2023-07-30T04:11:10;14.30;;;10.10;;
5026;SDS011;2532;52.480;13.354;2023-07-30T04:13:37;8.60;;;7.33;;
5026;SDS011;2532;52.480;13.354;2023-07-30T04:16:05;8.93;;;7.60;;
5026;SDS011;2532;52.480;13.354;2023-07-30T04:18:34;10.03;;;7.57;;
5026;SDS011;2532;52.480;13.354;2023-07-30T04:21:01;8.73;;;7.20;;
5026;SDS011;2532;52.480;13.354;2023-07-30T04:23:28;9.60;;;7.80;;
5026;SDS011;2532;52.480;13.354;2023-07-30T04:25:54;9.57;;;8.37;;
5026;SDS011;2532;52.480;13.354;2023-07-30T04:28:21;8.90;;;8.00;;
5026;SDS011;2532;52.480;13.354;2023-07-30T04:30:48;9.47;;;8.47;;
5026;SDS011;2532;52.480;13.354;2023-07-30T04:33:15;9.60;;;8.30;;
5026;SDS011;2532;52.480;13.354;2023-07-30T04:35:43;9.53;;;8.50;;
5026;SDS011;2532;52.480;13.354;2023-07-30T04:38:10;9.33;;;8.43;;
5026;SDS011;2532;52.480;13.354;2023-07-30T04:40:38;11.20;;;6.90;;
5026;SDS011;2532;52.480;13.354;2023-07-30T04:43:05;9.07;;;8.07;;
5026;SDS011;2532;52.480;13.354;2023-07-30T04:45:33;9.70;;;8.30;;
5026;SDS011;2532;52.480;13.354;2023-07-30T04:48:00;11.00;;;9.40;;
5026;SDS011;2532;52.480;13.354;2023-07-30T04:50:26;7.77;;;6.93;;
5026;SDS011;2532;52.480;13.354;2023-07-30T04:52:55;7.97;;;7.07;;
5026;SDS011;2532;52.480;13.354;2023-07-30T04:55:21;8.43;;;7.27;;
5026;SDS011;2532;52.480;13.354;2023-07-30T04:57:48;8.37;;;7.53;;
5026;SDS011;2532;52.480;13.354;2023-07-30T05:00:15;8.37;;;6.97;;
5026;SDS011;2532;52.480;13.354;2023-07-30T05:02:42;8.17;;;7.30;;
5026;SDS011;2532;52.480;13.354;2023-07-30T05:05:09;9.90;;;7.40;;
5026;SDS011;2532;52.480;13.354;2023-07-30T05:07:36;13.33;;;9.13;;
5026;SDS011;2532;52.480;13.354;2023-07-30T05:10:05;8.67;;;6.83;;
5026;SDS011;2532;52.480;13.354;2023-07-30T05:12:35;9.07;;;8.10;;
5026;SDS011;2532;52.480;13.354;2023-07-30T05:15:02;10.10;;;7.20;;
5026;SDS011;2532;52.480;13.354;2023-07-30T05:17:29;8.20;;;7.03;;
5026;SDS011;2532;52.480;13.354;2023-07-30T05:19:56;6.90;;;6.20;;
5026;SDS011;2532;52.480;13.354;2023-07-30T05:22:23;6.70;;;6.00;;
5026;SDS011;2532;52.480;13.354;2023-07-30T05:24:50;8.77;;;6.20;;
5026;SDS011;2532;52.480;13.354;2023-07-30T05:27:18;6.93;;;6.07;;
5026;SDS011;2532;52.480;13.354;2023-07-30T05:29:45;8.80;;;6.60;;
5026;SDS011;2532;52.480;13.354;2023-07-30T05:32:12;8.13;;;6.20;;
5026;SDS011;2532;52.480;13.354;2023-07-30T05:34:39;7.20;;;6.27;;
5026;SDS011;2532;52.480;13.354;2023-07-30T05:37:06;6.90;;;5.60;;
5026;SDS011;2532;52.480;13.354;2023-07-30T05:39:33;5.77;;;5.27;;
5026;SDS011;2532;52.480;13.354;2023-07-30T05:42:00;6.37;;;5.73;;
5026;SDS011;2532;52.480;13.354;2023-07-30T05:44:28;5.73;;;5.23;;
5026;SDS011;2532;52.480;13.354;2023-07-30T05:46:55;6.37;;;5.23;;
5026;SDS011;2532;52.480;13.354;2023-07-30T05:49:21;8.03;;;5.63;;
5026;SDS011;2532;52.480;13.354;2023-07-30T05:51:48;7.00;;;5.63;;
5026;SDS011;2532;52.480;13.354;2023-07-30T05:54:16;9.30;;;5.07;;
5026;SDS011;2532;52.480;13.354;2023-07-30T05:56:43;6.27;;;5.37;;
5026;SDS011;2532;52.480;13.354;2023-07-30T05:59:10;5.60;;;5.07;;
5026;SDS011;2532;52.480;13.354;2023-07-30T06:01:38;7.07;;;5.03;;
5026;SDS011;2532;52.480;13.354;2023-07-30T06:04:05;7.70;;;5.20;;
5026;SDS011;2532;52.480;13.354;2023-07-30T06:06:32;5.90;;;5.30;;
5026;SDS011;2532;52.480;13.354;2023-07-30T06:08:59;5.87;;;5.30;;
5026;SDS011;2532;52.480;13.354;2023-07-30T06:11:25;5.27;;;4.77;;
5026;SDS011;2532;52.480;13.354;2023-07-30T06:13:53;5.10;;;4.60;;
5026;SDS011;2532;52.480;13.354;2023-07-30T06:16:20;6.20;;;5.20;;
5026;SDS011;2532;52.480;13.354;2023-07-30T06:18:48;5.43;;;4.53;;
5026;SDS011;2532;52.480;13.354;2023-07-30T06:21:15;6.10;;;4.47;;
5026;SDS011;2532;52.480;13.354;2023-07-30T06:23:42;7.67;;;4.90;;
5026;SDS011;2532;52.480;13.354;2023-07-30T06:26:09;9.37;;;8.40;;
5026;SDS011;2532;52.480;13.354;2023-07-30T06:28:36;5.50;;;5.00;;
5026;SDS011;2532;52.480;13.354;2023-07-30T06:31:02;7.30;;;5.17;;
5026;SDS011;2532;52.480;13.354;2023-07-30T06:33:29;6.23;;;4.90;;
5026;SDS011;2532;52.480;13.354;2023-07-30T06:35:58;5.93;;;4.63;;
5026;SDS011;2532;52.480;13.354;2023-07-30T06:38:25;6.60;;;4.03;;
5026;SDS011;2532;52.480;13.354;2023-07-30T06:40:52;4.43;;;4.03;;
5026;SDS011;2532;52.480;13.354;2023-07-30T06:43:18;8.37;;;4.23;;
5026;SDS011;2532;52.480;13.354;2023-07-30T06:45:45;4.97;;;4.47;;
5026;SDS011;2532;52.480;13.354;2023-07-30T06:48:12;4.80;;;4.30;;
5026;SDS011;2532;52.480;13.354;2023-07-30T06:50:40;4.80;;;4.20;;
5026;SDS011;2532;52.480;13.354;2023-07-30T06:53:08;7.00;;;5.40;;
5026;SDS011;2532;52.480;13.354;2023-07-30T06:55:35;5.83;;;4.70;;
5026;SDS011;2532;52.480;13.354;2023-07-30T06:58:02;10.90;;;6.10;;
5026;SDS011;2532;52.480;13.354;2023-07-30T07:00:29;4.70;;;4.30;;
5026;SDS011;2532;52.480;13.354;2023-07-30T07:02:56;7.03;;;5.27;;
5026;SDS011;2532;52.480;13.354;2023-07-30T07:05:23;5.53;;;4.43;;
5026;SDS011;2532;52.480;13.354;2023-07-30T07:07:50;5.97;;;4.60;;
5026;SDS011;2532;52.480;13.354;2023-07-30T07:10:18;5.53;;;4.70;;
5026;SDS011;2532;52.480;13.354;2023-07-30T07:12:46;6.67;;;5.97;;
5026;SDS011;2532;52.480;13.354;2023-07-30T07:15:13;5.43;;;4.70;;
5026;SDS011;2532;52.480;13.354;2023-07-30T07:17:40;5.00;;;4.50;;
5026;SDS011;2532;52.480;13.354;2023-07-30T07:20:08;6.50;;;5.10;;
5026;SDS011;2532;52.480;13.354;2023-07-30T07:22:36;5.70;;;4.83;;
5026;SDS011;2532;52.480;13.354;2023-07-30T07:25:03;9.87;;;5.27;;
5026;SDS011;2532;52.480;13.354;2023-07-30T07:27:32;6.00;;;4.47;;
5026;SDS011;2532;52.480;13.354;2023-07-30T07:29:59;5.20;;;4.70;;
5026;SDS011;2532;52.480;13.354;2023-07-30T07:32:26;4.77;;;4.37;;
5026;SDS011;2532;52.480;13.354;2023-07-30T07:34:53;4.93;;;4.43;;
5026;SDS011;2532;52.480;13.354;2023-07-30T07:37:20;4.90;;;4.40;;
5026;SDS011;2532;52.480;13.354;2023-07-30T07:39:47;6.37;;;5.17;;
5026;SDS011;2532;52.480;13.354;2023-07-30T07:42:14;6.33;;;5.00;;
5026;SDS011;2532;52.480;13.354;2023-07-30T07:44:42;7.40;;;6.30;;
5026;SDS011;2532;52.480;13.354;2023-07-30T07:47:11;5.70;;;5.00;;
5026;SDS011;2532;52.480;13.354;2023-07-30T07:49:38;8.67;;;5.20;;
5026;SDS011;2532;52.480;13.354;2023-07-30T07:52:05;5.13;;;4.63;;
5026;SDS011;2532;52.480;13.354;2023-07-30T07:54:32;6.13;;;5.50;;
5026;SDS011;2532;52.480;13.354;2023-07-30T07:56:59;5.50;;;4.50;;
5026;SDS011;2532;52.480;13.354;2023-07-30T07:59:26;5.80;;;5.07;;
5026;SDS011;2532;52.480;13.354;2023-07-30T08:01:55;7.53;;;4.70;;
5026;SDS011;2532;52.480;13.354;2023-07-30T08:04:22;5.50;;;4.33;;
5026;SDS011;2532;52.480;13.354;2023-07-30T08:06:49;8.03;;;5.80;;
5026;SDS011;2532;52.480;13.354;2023-07-30T08:09:16;6.87;;;5.47;;
5026;SDS011;2532;52.480;13.354;2023-07-30T08:11:43;6.90;;;5.07;;
5026;SDS011;2532;52.480;13.354;2023-07-30T08:14:09;7.23;;;5.10;;
5026;SDS011;2532;52.480;13.354;2023-07-30T08:16:37;6.43;;;4.63;;
5026;SDS011;2532;52.480;13.354;2023-07-30T08:19:05;6.73;;;4.70;;
5026;SDS011;2532;52.480;13.354;2023-07-30T08:21:32;6.67;;;4.93;;
5026;SDS011;2532;52.480;13.354;2023-07-30T08:23:59;5.90;;;4.53;;
5026;SDS011;2532;52.480;13.354;2023-07-30T08:26:26;5.77;;;4.40;;
5026;SDS011;2532;52.480;13.354;2023-07-30T08:28:53;8.80;;;4.30;;
5026;SDS011;2532;52.480;13.354;2023-07-30T08:31:20;5.77;;;4.93;;
5026;SDS011;2532;52.480;13.354;2023-07-30T08:33:47;5.57;;;4.07;;
5026;SDS011;2532;52.480;13.354;2023-07-30T08:36:18;7.10;;;4.97;;
5026;SDS011;2532;52.480;13.354;2023-07-30T08:38:45;5.07;;;4.00;;
5026;SDS011;2532;52.480;13.354;2023-07-30T08:41:12;4.90;;;3.90;;
5026;SDS011;2532;52.480;13.354;2023-07-30T08:43:39;4.87;;;4.37;;
5026;SDS011;2532;52.480;13.354;2023-07-30T08:46:05;4.50;;;4.07;;
5026;SDS011;2532;52.480;13.354;2023-07-30T08:48:32;5.50;;;4.43;;
5026;SDS011;2532;52.480;13.354;2023-07-30T08:50:59;6.53;;;3.80;;
5026;SDS011;2532;52.480;13.354;2023-07-30T08:53:28;4.50;;;4.10;;
5026;SDS011;2532;52.480;13.354;2023-07-30T08:55:55;8.10;;;5.10;;
5026;SDS011;2532;52.480;13.354;2023-07-30T08:58:24;6.77;;;4.80;;
5026;SDS011;2532;52.480;13.354;2023-07-30T09:00:53;5.43;;;4.50;;
5026;SDS011;2532;52.480;13.354;2023-07-30T09:03:22;6.30;;;4.33;;
5026;SDS011;2532;52.480;13.354;2023-07-30T09:05:50;5.40;;;4.07;;
5026;SDS011;2532;52.480;13.354;2023-07-30T09:08:17;6.57;;;4.73;;
5026;SDS011;2532;52.480;13.354;2023-07-30T09:10:46;6.13;;;4.23;;
5026;SDS011;2532;52.480;13.354;2023-07-30T09:13:15;5.30;;;4.10;;
5026;SDS011;2532;52.480;13.354;2023-07-30T09:15:48;8.20;;;6.63;;
5026;SDS011;2532;52.480;13.354;2023-07-30T09:18:16;7.40;;;3.87;;
5026;SDS011;2532;52.480;13.354;2023-07-30T09:20:43;7.77;;;4.40;;
5026;SDS011;2532;52.480;13.354;2023-07-30T09:23:10;5.23;;;4.10;;
5026;SDS011;2532;52.480;13.354;2023-07-30T09:25:38;6.80;;;3.90;;
5026;SDS011;2532;52.480;13.354;2023-07-30T09:28:06;9.27;;;5.50;;
5026;SDS011;2532;52.480;13.354;2023-07-30T09:30:33;4.47;;;3.90;;
5026;SDS011;2532;52.480;13.354;2023-07-30T09:33:00;5.67;;;4.80;;
5026;SDS011;2532;52.480;13.354;2023-07-30T09:35:27;5.13;;;4.10;;
5026;SDS011;2532;52.480;13.354;2023-07-30T09:37:57;5.10;;;4.10;;
5026;SDS011;2532;52.480;13.354;2023-07-30T09:40:30;6.67;;;3.80;;
5026;SDS011;2532;52.480;13.354;2023-07-30T09:42:58;5.00;;;4.03;;
5026;SDS011;2532;52.480;13.354;2023-07-30T09:45:26;4.70;;;3.90;;
5026;SDS011;2532;52.480;13.354;2023-07-30T09:47:54;6.57;;;4.50;;
5026;SDS011;2532;52.480;13.354;2023-07-30T09:50:22;12.30;;;4.60;;
5026;SDS011;2532;52.480;13.354;2023-07-30T09:52:49;5.97;;;4.87;;
5026;SDS011;2532;52.480;13.354;2023-07-30T09:55:16;4.43;;;4.03;;
5026;SDS011;2532;52.480;13.354;2023-07-30T09:57:43;8.17;;;4.50;;
5026;SDS011;2532;52.480;13.354;2023-07-30T10:00:10;6.60;;;4.07;;
5026;SDS011;2532;52.480;13.354;2023-07-30T10:02:40;6.70;;;4.30;;
5026;SDS011;2532;52.480;13.354;2023-07-30T10:05:10;6.90;;;5.17;;
5026;SDS011;2532;52.480;13.354;2023-07-30T10:07:40;8.30;;;5.60;;
5026;SDS011;2532;52.480;13.354;2023-07-30T10:10:12;7.20;;;4.90;;
5026;SDS011;2532;52.480;13.354;2023-07-30T10:12:39;8.80;;;3.90;;
5026;SDS011;2532;52.480;13.354;2023-07-30T10:15:08;4.27;;;3.53;;
5026;SDS011;2532;52.480;13.354;2023-07-30T10:17:36;7.47;;;3.50;;
5026;SDS011;2532;52.480;13.354;2023-07-30T10:22:54;5.33;;;3.47;;
5026;SDS011;2532;52.480;13.354;2023-07-30T10:25:27;5.40;;;3.90;;
5026;SDS011;2532;52.480;13.354;2023-07-30T10:27:55;6.80;;;5.60;;
5026;SDS011;2532;52.480;13.354;2023-07-30T10:30:22;5.37;;;3.20;;
5026;SDS011;2532;52.480;13.354;2023-07-30T10:33:03;4.43;;;3.50;;
5026;SDS011;2532;52.480;13.354;2023-07-30T10:35:39;4.60;;;3.83;;
5026;SDS011;2532;52.480;13.354;2023-07-30T10:38:14;4.67;;;3.90;;
5026;SDS011;2532;52.480;13.354;2023-07-30T10:40:42;7.20;;;4.20;;
5026;SDS011;2532;52.480;13.354;2023-07-30T10:43:26;4.87;;;3.77;;
5026;SDS011;2532;52.480;13.354;2023-07-30T10:45:54;4.90;;;4.20;;
5026;SDS011;2532;52.480;13.354;2023-07-30T10:48:29;4.27;;;3.50;;
5026;SDS011;2532;52.480;13.354;2023-07-30T10:50:58;5.67;;;3.90;;
5026;SDS011;2532;52.480;13.354;2023-07-30T10:53:27;4.23;;;3.27;;
5026;SDS011;2532;52.480;13.354;2023-07-30T10:55:53;4.27;;;3.47;;
5026;SDS011;2532;52.480;13.354;2023-07-30T10:58:25;4.10;;;3.70;;
5026;SDS011;2532;52.480;13.354;2023-07-30T11:00:52;5.33;;;3.60;;
5026;SDS011;2532;52.480;13.354;2023-07-30T11:03:19;5.13;;;3.40;;
5026;SDS011;2532;52.480;13.354;2023-07-30T11:05:46;6.70;;;3.33;;
5026;SDS011;2532;52.480;13.354;2023-07-30T11:08:15;7.70;;;4.93;;
5026;SDS011;2532;52.480;13.354;2023-07-30T11:10:42;7.20;;;4.70;;
5026;SDS011;2532;52.480;13.354;2023-07-30T11:13:12;7.50;;;4.37;;
5026;SDS011;2532;52.480;13.354;2023-07-30T11:15:42;7.23;;;3.70;;
5026;SDS011;2532;52.480;13.354;2023-07-30T11:18:09;6.13;;;3.47;;
5026;SDS011;2532;52.480;13.354;2023-07-30T11:20:37;4.03;;;2.60;;
5026;SDS011;2532;52.480;13.354;2023-07-30T11:23:18;4.93;;;3.13;;
5026;SDS011;2532;52.480;13.354;2023-07-30T11:25:46;6.10;;;3.70;;
5026;SDS011;2532;52.480;13.354;2023-07-30T11:28:14;5.00;;;3.90;;
5026;SDS011;2532;52.480;13.354;2023-07-30T11:30:53;5.90;;;3.90;;
5026;SDS011;2532;52.480;13.354;2023-07-30T11:33:20;5.33;;;2.93;;
5026;SDS011;2532;52.480;13.354;2023-07-30T11:35:47;8.77;;;4.07;;
5026;SDS011;2532;52.480;13.354;2023-07-30T11:38:14;4.57;;;3.80;;
5026;SDS011;2532;52.480;13.354;2023-07-30T11:40:43;7.13;;;3.70;;
5026;SDS011;2532;52.480;13.354;2023-07-30T11:43:10;8.37;;;3.40;;
5026;SDS011;2532;52.480;13.354;2023-07-30T11:45:37;5.37;;;3.20;;
5026;SDS011;2532;52.480;13.354;2023-07-30T11:48:07;5.73;;;4.63;;
5026;SDS011;2532;52.480;13.354;2023-07-30T11:50:42;8.17;;;3.63;;
5026;SDS011;2532;52.480;13.354;2023-07-30T11:53:10;7.80;;;4.43;;
5026;SDS011;2532;52.480;13.354;2023-07-30T11:55:37;6.10;;;3.60;;
5026;SDS011;2532;52.480;13.354;2023-07-30T11:58:06;6.90;;;4.60;;
5026;SDS011;2532;52.480;13.354;2023-07-30T12:00:34;6.40;;;4.30;;
5026;SDS011;2532;52.480;13.354;2023-07-30T12:03:02;4.63;;;3.30;;
5026;SDS011;2532;52.480;13.354;2023-07-30T12:05:33;10.63;;;5.00;;
5026;SDS011;2532;52.480;13.354;2023-07-30T12:08:01;8.17;;;4.90;;
5026;SDS011;2532;52.480;13.354;2023-07-30T12:10:40;8.53;;;4.70;;
5026;SDS011;2532;52.480;13.354;2023-07-30T12:13:12;7.83;;;4.13;;
5026;SDS011;2532;52.480;13.354;2023-07-30T12:15:42;7.17;;;3.40;;
5026;SDS011;2532;52.480;13.354;2023-07-30T12:18:10;7.10;;;4.77;;
5026;SDS011;2532;52.480;13.354;2023-07-30T12:20:37;9.00;;;4.37;;
5026;SDS011;2532;52.480;13.354;2023-07-30T12:23:04;10.00;;;4.20;;
5026;SDS011;2532;52.480;13.354;2023-07-30T12:25:31;5.20;;;3.90;;
5026;SDS011;2532;52.480;13.354;2023-07-30T12:27:58;7.40;;;6.40;;
5026;SDS011;2532;52.480;13.354;2023-07-30T12:30:26;6.90;;;4.07;;
5026;SDS011;2532;52.480;13.354;2023-07-30T12:32:53;5.77;;;3.70;;
5026;SDS011;2532;52.480;13.354;2023-07-30T12:35:20;7.93;;;3.70;;
5026;SDS011;2532;52.480;13.354;2023-07-30T12:37:47;4.90;;;3.60;;
5026;SDS011;2532;52.480;13.354;2023-07-30T12:40:15;9.33;;;5.70;;
5026;SDS011;2532;52.480;13.354;2023-07-30T12:42:42;9.03;;;4.50;;
5026;SDS011;2532;52.480;13.354;2023-07-30T12:45:09;6.17;;;4.03;;
5026;SDS011;2532;52.480;13.354;2023-07-30T12:47:38;4.57;;;3.60;;
5026;SDS011;2532;52.480;13.354;2023-07-30T12:50:06;8.23;;;4.37;;
5026;SDS011;2532;52.480;13.354;2023-07-30T12:52:34;8.30;;;4.70;;
5026;SDS011;2532;52.480;13.354;2023-07-30T12:55:01;5.53;;;4.13;;
5026;SDS011;2532;52.480;13.354;2023-07-30T12:57:29;5.50;;;3.60;;
5026;SDS011;2532;52.480;13.354;2023-07-30T12:59:56;5.20;;;4.10;;
5026;SDS011;2532;52.480;13.354;2023-07-30T13:02:23;6.23;;;4.07;;
5026;SDS011;2532;52.480;13.354;2023-07-30T13:04:52;11.10;;;3.33;;
5026;SDS011;2532;52.480;13.354;2023-07-30T13:07:19;8.00;;;3.57;;
5026;SDS011;2532;52.480;13.354;2023-07-30T13:09:45;5.50;;;3.87;;
5026;SDS011;2532;52.480;13.354;2023-07-30T13:12:13;5.80;;;3.97;;
5026;SDS011;2532;52.480;13.354;2023-07-30T13:14:39;9.30;;;3.90;;
5026;SDS011;2532;52.480;13.354;2023-07-30T13:17:06;8.07;;;4.17;;
5026;SDS011;2532;52.480;13.354;2023-07-30T13:19:33;6.00;;;4.57;;
5026;SDS011;2532;52.480;13.354;2023-07-30T13:22:02;5.73;;;3.63;;
5026;SDS011;2532;52.480;13.354;2023-07-30T13:24:29;4.63;;;3.60;;
5026;SDS011;2532;52.480;13.354;2023-07-30T13:26:56;8.87;;;3.73;;
5026;SDS011;2532;52.480;13.354;2023-07-30T13:29:23;4.60;;;4.20;;
5026;SDS011;2532;52.480;13.354;2023-07-30T13:31:50;6.17;;;3.90;;
5026;SDS011;2532;52.480;13.354;2023-07-30T13:34:17;6.17;;;4.37;;
5026;SDS011;2532;52.480;13.354;2023-07-30T13:36:44;5.60;;;4.00;;
5026;SDS011;2532;52.480;13.354;2023-07-30T13:39:12;5.00;;;4.10;;
5026;SDS011;2532;52.480;13.354;2023-07-30T13:41:39;9.57;;;4.90;;
5026;SDS011;2532;52.480;13.354;2023-07-30T13:44:06;6.50;;;3.90;;
5026;SDS011;2532;52.480;13.354;2023-07-30T13:46:33;5.00;;;3.90;;
5026;SDS011;2532;52.480;13.354;2023-07-30T13:49:00;3.87;;;3.10;;
5026;SDS011;2532;52.480;13.354;2023-07-30T13:51:27;6.70;;;3.80;;
5026;SDS011;2532;52.480;13.354;2023-07-30T13:53:57;3.80;;;3.10;;
5026;SDS011;2532;52.480;13.354;2023-07-30T13:56:26;3.60;;;3.03;;
5026;SDS011;2532;52.480;13.354;2023-07-30T13:58:53;3.43;;;2.60;;
5026;SDS011;2532;52.480;13.354;2023-07-30T14:01:20;4.80;;;3.50;;
5026;SDS011;2532;52.480;13.354;2023-07-30T14:03:47;3.00;;;2.60;;
5026;SDS011;2532;52.480;13.354;2023-07-30T14:06:14;8.20;;;3.50;;
5026;SDS011;2532;52.480;13.354;2023-07-30T14:08:41;4.73;;;3.40;;
5026;SDS011;2532;52.480;13.354;2023-07-30T14:11:08;4.27;;;2.67;;
5026;SDS011;2532;52.480;13.354;2023-07-30T14:13:36;4.77;;;3.20;;
5026;SDS011;2532;52.480;13.354;2023-07-30T14:16:03;3.93;;;2.80;;
5026;SDS011;2532;52.480;13.354;2023-07-30T14:18:30;6.77;;;4.00;;
5026;SDS011;2532;52.480;13.354;2023-07-30T14:20:57;4.97;;;4.07;;
5026;SDS011;2532;52.480;13.354;2023-07-30T14:23:24;8.23;;;4.60;;
5026;SDS011;2532;52.480;13.354;2023-07-30T14:25:51;6.97;;;3.33;;
5026;SDS011;2532;52.480;13.354;2023-07-30T14:28:18;7.90;;;3.50;;
5026;SDS011;2532;52.480;13.354;2023-07-30T14:30:46;5.63;;;3.00;;
5026;SDS011;2532;52.480;13.354;2023-07-30T14:33:13;5.67;;;3.97;;
5026;SDS011;2532;52.480;13.354;2023-07-30T14:35:40;8.47;;;3.30;;
5026;SDS011;2532;52.480;13.354;2023-07-30T14:38:07;5.67;;;3.70;;
5026;SDS011;2532;52.480;13.354;2023-07-30T14:40:34;4.27;;;3.10;;
5026;SDS011;2532;52.480;13.354;2023-07-30T14:43:02;3.33;;;2.90;;
5026;SDS011;2532;52.480;13.354;2023-07-30T14:45:28;4.67;;;3.20;;
5026;SDS011;2532;52.480;13.354;2023-07-30T14:47:57;6.17;;;4.40;;
5026;SDS011;2532;52.480;13.354;2023-07-30T14:50:24;7.07;;;2.70;;
5026;SDS011;2532;52.480;13.354;2023-07-30T14:52:51;5.37;;;3.60;;
5026;SDS011;2532;52.480;13.354;2023-07-30T14:55:18;4.77;;;3.43;;
5026;SDS011;2532;52.480;13.354;2023-07-30T14:57:44;8.47;;;3.57;;
5026;SDS011;2532;52.480;13.354;2023-07-30T15:00:12;6.67;;;3.60;;
5026;SDS011;2532;52.480;13.354;2023-07-30T15:02:42;11.83;;;4.67;;
5026;SDS011;2532;52.480;13.354;2023-07-30T15:05:10;5.67;;;3.33;;
5026;SDS011;2532;52.480;13.354;2023-07-30T15:07:37;5.60;;;3.60;;
5026;SDS011;2532;52.480;13.354;2023-07-30T15:10:05;6.33;;;3.57;;
5026;SDS011;2532;52.480;13.354;2023-07-30T15:12:33;7.80;;;4.30;;
5026;SDS011;2532;52.480;13.354;2023-07-30T15:15:00;7.80;;;4.20;;
5026;SDS011;2532;52.480;13.354;2023-07-30T15:17:28;11.40;;;4.00;;
5026;SDS011;2532;52.480;13.354;2023-07-30T15:19:55;6.00;;;3.53;;
5026;SDS011;2532;52.480;13.354;2023-07-30T15:22:25;6.80;;;3.83;;
5026;SDS011;2532;52.480;13.354;2023-07-30T15:24:52;9.07;;;4.07;;
5026;SDS011;2532;52.480;13.354;2023-07-30T15:27:19;6.77;;;3.97;;
5026;SDS011;2532;52.480;13.354;2023-07-30T15:29:46;4.40;;;3.70;;
5026;SDS011;2532;52.480;13.354;2023-07-30T15:32:13;5.43;;;3.20;;
5026;SDS011;2532;52.480;13.354;2023-07-30T15:34:40;5.70;;;3.47;;
5026;SDS011;2532;52.480;13.354;2023-07-30T15:37:08;6.10;;;3.40;;
5026;SDS011;2532;52.480;13.354;2023-07-30T15:39:36;6.43;;;4.00;;
5026;SDS011;2532;52.480;13.354;2023-07-30T15:42:03;5.90;;;3.43;;
5026;SDS011;2532;52.480;13.354;2023-07-30T15:44:32;5.77;;;2.90;;
5026;SDS011;2532;52.480;13.354;2023-07-30T15:46:59;8.37;;;3.77;;
5026;SDS011;2532;52.480;13.354;2023-07-30T15:49:25;4.63;;;3.30;;
5026;SDS011;2532;52.480;13.354;2023-07-30T15:51:52;6.00;;;3.40;;
5026;SDS011;2532;52.480;13.354;2023-07-30T15:54:30;6.07;;;4.03;;
5026;SDS011;2532;52.480;13.354;2023-07-30T15:56:59;10.40;;;3.60;;
5026;SDS011;2532;52.480;13.354;2023-07-30T15:59:26;4.43;;;3.10;;
5026;SDS011;2532;52.480;13.354;2023-07-30T16:01:53;4.67;;;3.40;;
5026;SDS011;2532;52.480;13.354;2023-07-30T16:04:21;4.50;;;3.30;;
5026;SDS011;2532;52.480;13.354;2023-07-30T16:06:48;4.30;;;3.20;;
5026;SDS011;2532;52.480;13.354;2023-07-30T16:09:15;3.50;;;3.20;;
5026;SDS011;2532;52.480;13.354;2023-07-30T16:11:42;4.37;;;3.13;;
5026;SDS011;2532;52.480;13.354;2023-07-30T16:14:10;4.70;;;2.80;;
5026;SDS011;2532;52.480;13.354;2023-07-30T16:16:37;4.60;;;3.20;;
5026;SDS011;2532;52.480;13.354;2023-07-30T16:19:05;5.63;;;3.23;;
5026;SDS011;2532;52.480;13.354;2023-07-30T16:21:39;3.70;;;2.70;;
5026;SDS011;2532;52.480;13.354;2023-07-30T16:24:09;8.03;;;3.20;;
5026;SDS011;2532;52.480;13.354;2023-07-30T16:26:36;3.70;;;3.10;;
5026;SDS011;2532;52.480;13.354;2023-07-30T16:29:03;5.70;;;3.23;;
5026;SDS011;2532;52.480;13.354;2023-07-30T16:31:33;5.03;;;3.27;;
5026;SDS011;2532;52.480;13.354;2023-07-30T16:36:39;6.53;;;4.00;;
5026;SDS011;2532;52.480;13.354;2023-07-30T16:39:06;4.10;;;3.10;;
5026;SDS011;2532;52.480;13.354;2023-07-30T16:41:34;5.13;;;3.50;;
5026;SDS011;2532;52.480;13.354;2023-07-30T16:44:01;4.80;;;3.53;;
5026;SDS011;2532;52.480;13.354;2023-07-30T16:46:28;9.57;;;3.90;;
5026;SDS011;2532;52.480;13.354;2023-07-30T16:48:56;5.23;;;4.00;;
5026;SDS011;2532;52.480;13.354;2023-07-30T16:51:23;3.97;;;3.57;;
5026;SDS011;2532;52.480;13.354;2023-07-30T16:53:50;4.87;;;3.53;;
5026;SDS011;2532;52.480;13.354;2023-07-30T16:56:17;7.30;;;3.30;;
5026;SDS011;2532;52.480;13.354;2023-07-30T16:58:44;4.63;;;3.20;;
5026;SDS011;2532;52.480;13.354;2023-07-30T17:01:11;3.97;;;3.43;;
5026;SDS011;2532;52.480;13.354;2023-07-30T17:03:39;6.53;;;4.93;;
5026;SDS011;2532;52.480;13.354;2023-07-30T17:06:08;6.50;;;3.60;;
5026;SDS011;2532;52.480;13.354;2023-07-30T17:08:35;8.20;;;3.70;;
5026;SDS011;2532;52.480;13.354;2023-07-30T17:11:03;6.33;;;4.13;;
5026;SDS011;2532;52.480;13.354;2023-07-30T17:13:31;4.53;;;3.43;;
5026;SDS011;2532;52.480;13.354;2023-07-30T17:16:02;6.70;;;3.57;;
5026;SDS011;2532;52.480;13.354;2023-07-30T17:18:30;5.67;;;3.93;;
5026;SDS011;2532;52.480;13.354;2023-07-30T17:20:58;4.70;;;3.53;;
5026;SDS011;2532;52.480;13.354;2023-07-30T17:23:26;5.10;;;3.37;;
5026;SDS011;2532;52.480;13.354;2023-07-30T17:25:53;3.77;;;2.83;;
5026;SDS011;2532;52.480;13.354;2023-07-30T17:28:22;5.87;;;3.60;;
5026;SDS011;2532;52.480;13.354;2023-07-30T17:30:49;4.13;;;3.70;;
5026;SDS011;2532;52.480;13.354;2023-07-30T17:33:16;6.63;;;3.67;;
5026;SDS011;2532;52.480;13.354;2023-07-30T17:35:44;4.20;;;3.40;;
5026;SDS011;2532;52.480;13.354;2023-07-30T17:38:11;7.53;;;3.97;;
5026;SDS011;2532;52.480;13.354;2023-07-30T17:40:39;4.80;;;3.70;;
5026;SDS011;2532;52.480;13.354;2023-07-30T17:43:14;4.87;;;3.40;;
5026;SDS011;2532;52.480;13.354;2023-07-30T17:45:42;5.67;;;4.00;;
5026;SDS011;2532;52.480;13.354;2023-07-30T17:48:08;6.00;;;4.00;;
5026;SDS011;2532;52.480;13.354;2023-07-30T17:50:35;7.90;;;4.10;;
5026;SDS011;2532;52.480;13.354;2023-07-30T17:53:04;5.47;;;3.20;;
5026;SDS011;2532;52.480;13.354;2023-07-30T17:55:31;5.90;;;3.47;;
5026;SDS011;2532;52.480;13.354;2023-07-30T17:57:59;10.03;;;7.00;;
5026;SDS011;2532;52.480;13.354;2023-07-30T18:00:26;4.90;;;3.50;;
5026;SDS011;2532;52.480;13.354;2023-07-30T18:02:54;5.60;;;3.83;;
5026;SDS011;2532;52.480;13.354;2023-07-30T18:05:21;5.33;;;3.87;;
5026;SDS011;2532;52.480;13.354;2023-07-30T18:07:49;5.63;;;3.47;;
5026;SDS011;2532;52.480;13.354;2023-07-30T18:10:15;3.93;;;3.13;;
5026;SDS011;2532;52.480;13.354;2023-07-30T18:12:43;7.60;;;3.90;;
5026;SDS011;2532;52.480;13.354;2023-07-30T18:15:11;5.30;;;3.77;;
5026;SDS011;2532;52.480;13.354;2023-07-30T18:17:38;5.30;;;3.53;;
5026;SDS011;2532;52.480;13.354;2023-07-30T18:20:05;5.87;;;3.90;;
5026;SDS011;2532;52.480;13.354;2023-07-30T18:22:34;7.20;;;4.00;;
5026;SDS011;2532;52.480;13.354;2023-07-30T18:25:01;5.53;;;4.50;;
5026;SDS011;2532;52.480;13.354;2023-07-30T18:27:27;5.80;;;4.33;;
5026;SDS011;2532;52.480;13.354;2023-07-30T18:29:54;6.73;;;4.80;;
5026;SDS011;2532;52.480;13.354;2023-07-30T18:32:23;7.33;;;4.37;;
5026;SDS011;2532;52.480;13.354;2023-07-30T18:34:49;6.50;;;4.03;;
5026;SDS011;2532;52.480;13.354;2023-07-30T18:37:17;5.03;;;4.20;;
5026;SDS011;2532;52.480;13.354;2023-07-30T18:39:43;10.53;;;4.30;;
5026;SDS011;2532;52.480;13.354;2023-07-30T18:42:10;6.13;;;4.23;;
5026;SDS011;2532;52.480;13.354;2023-07-30T18:44:37;8.80;;;4.00;;
5026;SDS011;2532;52.480;13.354;2023-07-30T18:47:04;7.30;;;4.87;;
5026;SDS011;2532;52.480;13.354;2023-07-30T18:49:33;8.20;;;4.67;;
5026;SDS011;2532;52.480;13.354;2023-07-30T18:51:59;11.20;;;6.20;;
5026;SDS011;2532;52.480;13.354;2023-07-30T18:54:26;12.03;;;5.00;;
5026;SDS011;2532;52.480;13.354;2023-07-30T18:56:53;6.80;;;4.03;;
5026;SDS011;2532;52.480;13.354;2023-07-30T18:59:20;7.60;;;4.13;;
5026;SDS011;2532;52.480;13.354;2023-07-30T19:01:47;9.20;;;4.40;;
5026;SDS011;2532;52.480;13.354;2023-07-30T19:04:14;6.47;;;4.77;;
5026;SDS011;2532;52.480;13.354;2023-07-30T19:06:42;9.30;;;5.00;;
5026;SDS011;2532;52.480;13.354;2023-07-30T19:09:09;8.50;;;5.10;;